sensor_id;sensor_type;location;lat;lon;timestamp;pressure;altitude;pressure_sealevel;temperature;humidity
3598;BME280;1813;52.016;8.714;2023-04-06T00:00:45;-16261.94;;;-139.71;49.91
3598;BME280;1813;52.016;8.714;2023-04-06T00:03:19;-16261.94;;;-139.71;50.23
3598;BME280;1813;52.016;8.714;2023-04-06T00:05:53;-16261.94;;;-139.71;49.89
3598;BME280;1813;52.016;8.714;2023-04-06T00:08:30;-16261.94;;;-139.71;49.95
3598;BME280;1813;52.016;8.714;2023-04-06T00:11:04;-16261.94;;;-139.71;50.15
3598;BME280;1813;52.016;8.714;2023-04-06T00:13:38;-16261.94;;;-139.71;50.15
3598;BME280;1813;52.016;8.714;2023-04-06T00:16:11;-16261.94;;;-139.71;50.10
3598;BME280;1813;52.016;8.714;2023-04-06T00:18:45;-16261.94;;;-139.71;50.02
3598;BME280;1813;52.016;8.714;2023-04-06T00:21:19;-16261.94;;;-139.71;50.18
3598;BME280;1813;52.016;8.714;2023-04-06T00:23:56;-16261.94;;;-139.71;50.20
3598;BME280;1813;52.016;8.714;2023-04-06T00:26:30;-16261.94;;;-139.71;50.35
3598;BME280;1813;52.016;8.714;2023-04-06T00:29:04;-16261.94;;;-139.71;50.53
3598;BME280;1813;52.016;8.714;2023-04-06T00:31:38;-16261.94;;;-139.71;50.45
3598;BME280;1813;52.016;8.714;2023-04-06T00:34:12;-16261.94;;;-139.71;50.22
3598;BME280;1813;52.016;8.714;2023-04-06T00:36:46;-16261.94;;;-139.71;50.13
3598;BME280;1813;52.016;8.714;2023-04-06T00:39:23;-16261.94;;;-139.71;50.10
3598;BME280;1813;52.016;8.714;2023-04-06T00:41:57;-16261.94;;;-139.71;50.20
3598;BME280;1813;52.016;8.714;2023-04-06T00:44:31;-16261.94;;;-139.71;50.42
3598;BME280;1813;52.016;8.714;2023-04-06T00:47:05;-16261.94;;;-139.71;50.63
3598;BME280;1813;52.016;8.714;2023-04-06T00:49:39;-16261.94;;;-139.71;50.92
3598;BME280;1813;52.016;8.714;2023-04-06T00:52:13;-16261.94;;;-139.71;51.21
3598;BME280;1813;52.016;8.714;2023-04-06T00:54:53;-16261.94;;;-139.71;51.44
3598;BME280;1813;52.016;8.714;2023-04-06T00:57:27;-16261.94;;;-139.71;51.12
3598;BME280;1813;52.016;8.714;2023-04-06T01:00:02;-16261.94;;;-139.71;51.04
3598;BME280;1813;52.016;8.714;2023-04-06T01:02:38;-16261.94;;;-139.71;51.03
3598;BME280;1813;52.016;8.714;2023-04-06T01:05:13;-16261.94;;;-139.71;50.93
3598;BME280;1813;52.016;8.714;2023-04-06T01:07:55;-16261.94;;;-139.71;51.22
3598;BME280;1813;52.016;8.714;2023-04-06T01:10:35;-16261.94;;;-139.71;51.34
3598;BME280;1813;52.016;8.714;2023-04-06T01:13:28;-16261.94;;;-139.71;51.51
3598;BME280;1813;52.016;8.714;2023-04-06T01:16:05;-16261.94;;;-139.71;51.47
3598;BME280;1813;52.016;8.714;2023-04-06T01:18:51;-16261.94;;;-139.71;51.50
3598;BME280;1813;52.016;8.714;2023-04-06T01:21:33;-16261.94;;;-139.71;51.96
3598;BME280;1813;52.016;8.714;2023-04-06T01:24:29;-16261.94;;;-139.71;52.02
3598;BME280;1813;52.016;8.714;2023-04-06T01:27:14;-16261.94;;;-139.71;52.27
3598;BME280;1813;52.016;8.714;2023-04-06T01:30:17;-16261.94;;;-139.71;52.56
3598;BME280;1813;52.016;8.714;2023-04-06T01:33:04;-16261.94;;;-139.71;52.07
3598;BME280;1813;52.016;8.714;2023-04-06T01:35:47;-16261.94;;;-139.71;51.89
3598;BME280;1813;52.016;8.714;2023-04-06T01:38:24;-16261.94;;;-139.71;51.71
3598;BME280;1813;52.016;8.714;2023-04-06T01:41:01;-16261.94;;;-139.71;51.79
3598;BME280;1813;52.016;8.714;2023-04-06T01:43:42;-16261.94;;;-139.71;51.84
3598;BME280;1813;52.016;8.714;2023-04-06T01:46:16;-16261.94;;;-139.71;52.00
3598;BME280;1813;52.016;8.714;2023-04-06T01:48:50;-16261.94;;;-139.71;52.00
3598;BME280;1813;52.016;8.714;2023-04-06T01:51:39;-16261.94;;;-139.71;52.27
3598;BME280;1813;52.016;8.714;2023-04-06T01:54:17;-16261.94;;;-139.71;52.53
3598;BME280;1813;52.016;8.714;2023-04-06T01:57:31;-16261.94;;;-139.71;52.41
3598;BME280;1813;52.016;8.714;2023-04-06T02:00:16;-16261.94;;;-139.71;52.13
3598;BME280;1813;52.016;8.714;2023-04-06T02:02:56;-16261.94;;;-139.71;51.81
3598;BME280;1813;52.016;8.714;2023-04-06T02:05:33;-16261.94;;;-139.71;51.87
3598;BME280;1813;52.016;8.714;2023-04-06T02:08:18;-16261.94;;;-139.71;52.59
3598;BME280;1813;52.016;8.714;2023-04-06T02:10:51;-16261.94;;;-139.71;53.11
3598;BME280;1813;52.016;8.714;2023-04-06T02:13:38;-16261.94;;;-139.71;53.42
3598;BME280;1813;52.016;8.714;2023-04-06T02:16:13;-16261.94;;;-139.71;53.37
3598;BME280;1813;52.016;8.714;2023-04-06T02:18:50;-16261.94;;;-139.71;53.34
3598;BME280;1813;52.016;8.714;2023-04-06T02:21:24;-16261.94;;;-139.71;53.07
3598;BME280;1813;52.016;8.714;2023-04-06T02:23:58;-16261.94;;;-139.71;53.26
3598;BME280;1813;52.016;8.714;2023-04-06T02:26:32;-16261.94;;;-139.71;53.19
3598;BME280;1813;52.016;8.714;2023-04-06T02:29:08;-16261.94;;;-139.71;52.65
3598;BME280;1813;52.016;8.714;2023-04-06T02:31:43;-16261.94;;;-139.71;52.29
3598;BME280;1813;52.016;8.714;2023-04-06T02:34:17;-16261.94;;;-139.71;52.39
3598;BME280;1813;52.016;8.714;2023-04-06T02:36:54;-16261.94;;;-139.71;52.54
3598;BME280;1813;52.016;8.714;2023-04-06T02:39:31;-16261.94;;;-139.71;52.56
3598;BME280;1813;52.016;8.714;2023-04-06T02:42:07;-16261.94;;;-139.71;52.73
3598;BME280;1813;52.016;8.714;2023-04-06T02:44:45;-16261.94;;;-139.71;53.09
3598;BME280;1813;52.016;8.714;2023-04-06T02:47:19;-16261.94;;;-139.71;53.33
3598;BME280;1813;52.016;8.714;2023-04-06T02:49:55;-16261.94;;;-139.71;53.42
3598;BME280;1813;52.016;8.714;2023-04-06T02:52:29;-16261.94;;;-139.71;53.44
3598;BME280;1813;52.016;8.714;2023-04-06T02:55:04;-16261.94;;;-139.71;53.58
3598;BME280;1813;52.016;8.714;2023-04-06T02:57:38;-16261.94;;;-139.71;53.93
3598;BME280;1813;52.016;8.714;2023-04-06T03:00:16;-16261.94;;;-139.71;53.66
3598;BME280;1813;52.016;8.714;2023-04-06T03:02:50;-16261.94;;;-139.71;53.76
3598;BME280;1813;52.016;8.714;2023-04-06T03:05:24;-16261.94;;;-139.71;53.86
3598;BME280;1813;52.016;8.714;2023-04-06T03:07:58;-16261.94;;;-139.71;54.04
3598;BME280;1813;52.016;8.714;2023-04-06T03:10:42;-16261.94;;;-139.71;53.83
3598;BME280;1813;52.016;8.714;2023-04-06T03:13:16;-16261.94;;;-139.71;53.65
3598;BME280;1813;52.016;8.714;2023-04-06T03:16:03;-16261.94;;;-139.71;53.62
3598;BME280;1813;52.016;8.714;2023-04-06T03:18:37;-16261.94;;;-139.71;53.54
3598;BME280;1813;52.016;8.714;2023-04-06T03:21:11;-16261.94;;;-139.71;53.42
3598;BME280;1813;52.016;8.714;2023-04-06T03:23:52;-16261.94;;;-139.71;53.76
3598;BME280;1813;52.016;8.714;2023-04-06T03:26:26;-16261.94;;;-139.71;53.46
3598;BME280;1813;52.016;8.714;2023-04-06T03:29:02;-16261.94;;;-139.71;53.28
3598;BME280;1813;52.016;8.714;2023-04-06T03:31:39;-16261.94;;;-139.71;53.56
3598;BME280;1813;52.016;8.714;2023-04-06T03:34:27;-16261.94;;;-139.71;53.71
3598;BME280;1813;52.016;8.714;2023-04-06T03:37:00;-16261.94;;;-139.71;53.76
3598;BME280;1813;52.016;8.714;2023-04-06T03:39:35;-16261.94;;;-139.71;53.64
3598;BME280;1813;52.016;8.714;2023-04-06T03:42:11;-16261.94;;;-139.71;53.39
3598;BME280;1813;52.016;8.714;2023-04-06T03:44:53;-16261.94;;;-139.71;53.22
3598;BME280;1813;52.016;8.714;2023-04-06T03:47:30;-16261.94;;;-139.71;53.23
3598;BME280;1813;52.016;8.714;2023-04-06T03:50:09;-16261.94;;;-139.71;53.28
3598;BME280;1813;52.016;8.714;2023-04-06T03:52:43;-16261.94;;;-139.71;53.14
3598;BME280;1813;52.016;8.714;2023-04-06T03:55:17;-16261.94;;;-139.71;53.62
3598;BME280;1813;52.016;8.714;2023-04-06T03:57:51;-16261.94;;;-139.71;53.69
3598;BME280;1813;52.016;8.714;2023-04-06T04:00:26;-16261.94;;;-139.71;53.62
3598;BME280;1813;52.016;8.714;2023-04-06T04:03:03;-16261.94;;;-139.71;53.78
3598;BME280;1813;52.016;8.714;2023-04-06T04:05:37;-16261.94;;;-139.71;54.10
3598;BME280;1813;52.016;8.714;2023-04-06T04:08:11;-16261.94;;;-139.71;54.07
3598;BME280;1813;52.016;8.714;2023-04-06T04:10:45;-16261.94;;;-139.71;54.01
3598;BME280;1813;52.016;8.714;2023-04-06T04:13:19;-16261.94;;;-139.71;53.82
3598;BME280;1813;52.016;8.714;2023-04-06T04:15:55;-16261.94;;;-139.71;53.54
3598;BME280;1813;52.016;8.714;2023-04-06T04:18:32;-16261.94;;;-139.71;54.02
3598;BME280;1813;52.016;8.714;2023-04-06T04:21:07;-16261.94;;;-139.71;54.23
3598;BME280;1813;52.016;8.714;2023-04-06T04:23:41;-16261.94;;;-139.71;54.29
3598;BME280;1813;52.016;8.714;2023-04-06T04:26:15;-16261.94;;;-139.71;54.45
3598;BME280;1813;52.016;8.714;2023-04-06T04:28:51;-16261.94;;;-139.71;54.64
3598;BME280;1813;52.016;8.714;2023-04-06T04:31:25;-16261.94;;;-139.71;54.66
3598;BME280;1813;52.016;8.714;2023-04-06T04:34:05;-16261.94;;;-139.71;54.57
3598;BME280;1813;52.016;8.714;2023-04-06T04:36:40;-16261.94;;;-139.71;54.50
3598;BME280;1813;52.016;8.714;2023-04-06T04:39:19;-16261.94;;;-139.71;54.11
3598;BME280;1813;52.016;8.714;2023-04-06T04:42:01;-16261.94;;;-139.71;54.17
3598;BME280;1813;52.016;8.714;2023-04-06T04:44:37;-16261.94;;;-139.71;54.24
3598;BME280;1813;52.016;8.714;2023-04-06T04:47:12;-16261.94;;;-139.71;54.06
3598;BME280;1813;52.016;8.714;2023-04-06T04:49:53;-16261.94;;;-139.71;54.01
3598;BME280;1813;52.016;8.714;2023-04-06T04:52:28;-16261.94;;;-139.71;53.67
3598;BME280;1813;52.016;8.714;2023-04-06T04:55:14;-16261.94;;;-139.71;53.66
3598;BME280;1813;52.016;8.714;2023-04-06T04:57:51;-16261.94;;;-139.71;54.05
3598;BME280;1813;52.016;8.714;2023-04-06T05:00:31;-16261.94;;;-139.71;54.22
3598;BME280;1813;52.016;8.714;2023-04-06T05:03:06;-16261.94;;;-139.71;54.05
3598;BME280;1813;52.016;8.714;2023-04-06T05:05:46;-16261.94;;;-139.71;54.15
3598;BME280;1813;52.016;8.714;2023-04-06T05:08:22;-16261.94;;;-139.71;54.37
3598;BME280;1813;52.016;8.714;2023-04-06T05:10:56;-16261.94;;;-139.71;54.58
3598;BME280;1813;52.016;8.714;2023-04-06T05:13:31;-16261.94;;;-139.71;54.99
3598;BME280;1813;52.016;8.714;2023-04-06T05:16:11;-16261.94;;;-139.71;55.41
3598;BME280;1813;52.016;8.714;2023-04-06T05:18:47;-16261.94;;;-139.71;55.67
3598;BME280;1813;52.016;8.714;2023-04-06T05:21:24;-16261.94;;;-139.71;55.61
3598;BME280;1813;52.016;8.714;2023-04-06T05:24:06;-16261.94;;;-139.71;55.70
3598;BME280;1813;52.016;8.714;2023-04-06T05:26:42;-16261.94;;;-139.71;55.98
3598;BME280;1813;52.016;8.714;2023-04-06T05:29:24;-16261.94;;;-139.71;56.11
3598;BME280;1813;52.016;8.714;2023-04-06T05:31:58;-16261.94;;;-139.71;56.49
3598;BME280;1813;52.016;8.714;2023-04-06T05:34:32;-16261.94;;;-139.71;56.92
3598;BME280;1813;52.016;8.714;2023-04-06T05:37:14;-16261.94;;;-139.71;56.96
3598;BME280;1813;52.016;8.714;2023-04-06T05:39:48;-16261.94;;;-139.71;57.10
3598;BME280;1813;52.016;8.714;2023-04-06T05:42:22;-16261.94;;;-139.71;57.12
3598;BME280;1813;52.016;8.714;2023-04-06T05:45:00;-16261.94;;;-139.71;56.92
3598;BME280;1813;52.016;8.714;2023-04-06T05:47:34;-16261.94;;;-139.71;56.78
3598;BME280;1813;52.016;8.714;2023-04-06T05:50:20;-16261.94;;;-139.71;56.99
3598;BME280;1813;52.016;8.714;2023-04-06T05:52:57;-16261.94;;;-139.71;57.39
3598;BME280;1813;52.016;8.714;2023-04-06T05:55:37;-16261.94;;;-139.71;57.63
3598;BME280;1813;52.016;8.714;2023-04-06T05:58:16;-16261.94;;;-139.71;57.80
3598;BME280;1813;52.016;8.714;2023-04-06T06:00:56;-16261.94;;;-139.71;57.86
3598;BME280;1813;52.016;8.714;2023-04-06T06:03:34;-16261.94;;;-139.71;57.69
3598;BME280;1813;52.016;8.714;2023-04-06T06:06:08;-16261.94;;;-139.71;57.32
3598;BME280;1813;52.016;8.714;2023-04-06T06:08:59;-16261.94;;;-139.71;57.49
3598;BME280;1813;52.016;8.714;2023-04-06T06:11:37;-16261.94;;;-139.71;57.97
3598;BME280;1813;52.016;8.714;2023-04-06T06:14:12;-16261.94;;;-139.71;58.50
3598;BME280;1813;52.016;8.714;2023-04-06T06:16:48;-16261.94;;;-139.71;58.61
3598;BME280;1813;52.016;8.714;2023-04-06T06:19:22;-16261.94;;;-139.71;58.72
3598;BME280;1813;52.016;8.714;2023-04-06T06:21:59;-16261.94;;;-139.71;58.74
3598;BME280;1813;52.016;8.714;2023-04-06T06:24:36;-16261.94;;;-139.71;59.26
3598;BME280;1813;52.016;8.714;2023-04-06T06:27:10;-16261.94;;;-139.71;59.51
3598;BME280;1813;52.016;8.714;2023-04-06T06:29:44;-16261.94;;;-139.71;59.29
3598;BME280;1813;52.016;8.714;2023-04-06T06:32:18;-16261.94;;;-139.71;58.97
3598;BME280;1813;52.016;8.714;2023-04-06T06:34:55;-16261.94;;;-139.71;59.06
3598;BME280;1813;52.016;8.714;2023-04-06T06:37:29;-16261.94;;;-139.71;58.86
3598;BME280;1813;52.016;8.714;2023-04-06T06:40:09;-16261.94;;;-139.71;58.58
3598;BME280;1813;52.016;8.714;2023-04-06T06:42:44;-16261.94;;;-139.71;58.81
3598;BME280;1813;52.016;8.714;2023-04-06T06:45:28;-16261.94;;;-139.71;58.58
3598;BME280;1813;52.016;8.714;2023-04-06T06:48:03;-16261.94;;;-139.71;58.55
3598;BME280;1813;52.016;8.714;2023-04-06T06:50:36;-16261.94;;;-139.71;57.97
3598;BME280;1813;52.016;8.714;2023-04-06T06:53:10;-16261.94;;;-139.71;58.08
3598;BME280;1813;52.016;8.714;2023-04-06T06:55:47;-16261.94;;;-139.71;57.85
3598;BME280;1813;52.016;8.714;2023-04-06T06:58:21;-16261.94;;;-139.71;57.58
3598;BME280;1813;52.016;8.714;2023-04-06T07:00:56;-16261.94;;;-139.71;57.81
3598;BME280;1813;52.016;8.714;2023-04-06T07:03:32;-16261.94;;;-139.71;58.05
3598;BME280;1813;52.016;8.714;2023-04-06T07:06:06;-16261.94;;;-139.71;58.22
3598;BME280;1813;52.016;8.714;2023-04-06T07:08:40;-16261.94;;;-139.71;57.49
3598;BME280;1813;52.016;8.714;2023-04-06T07:11:16;-16261.94;;;-139.71;56.12
3598;BME280;1813;52.016;8.714;2023-04-06T07:13:51;-16261.94;;;-139.71;55.34
3598;BME280;1813;52.016;8.714;2023-04-06T07:16:25;-16261.94;;;-139.71;54.96
3598;BME280;1813;52.016;8.714;2023-04-06T07:18:59;-16261.94;;;-139.71;54.55
3598;BME280;1813;52.016;8.714;2023-04-06T07:21:33;-16261.94;;;-139.71;53.79
3598;BME280;1813;52.016;8.714;2023-04-06T07:24:07;-16261.94;;;-139.71;53.63
3598;BME280;1813;52.016;8.714;2023-04-06T07:26:44;-16261.94;;;-139.71;53.07
3598;BME280;1813;52.016;8.714;2023-04-06T07:29:18;-16261.94;;;-139.71;51.97
3598;BME280;1813;52.016;8.714;2023-04-06T07:31:53;-16261.94;;;-139.71;49.76
3598;BME280;1813;52.016;8.714;2023-04-06T07:34:27;-16261.94;;;-139.71;49.14
3598;BME280;1813;52.016;8.714;2023-04-06T07:37:01;-16261.94;;;-139.71;48.38
3598;BME280;1813;52.016;8.714;2023-04-06T07:39:36;-16261.94;;;-139.71;48.08
3598;BME280;1813;52.016;8.714;2023-04-06T07:42:14;-16261.94;;;-139.71;47.92
3598;BME280;1813;52.016;8.714;2023-04-06T07:44:48;-16261.94;;;-139.71;46.58
3598;BME280;1813;52.016;8.714;2023-04-06T07:47:23;-16261.94;;;-139.71;46.50
3598;BME280;1813;52.016;8.714;2023-04-06T07:49:57;-16261.94;;;-139.71;45.79
3598;BME280;1813;52.016;8.714;2023-04-06T07:52:31;-16261.94;;;-139.71;44.02
3598;BME280;1813;52.016;8.714;2023-04-06T07:55:06;-16261.94;;;-139.71;42.45
3598;BME280;1813;52.016;8.714;2023-04-06T07:57:44;-16261.94;;;-139.71;42.38
3598;BME280;1813;52.016;8.714;2023-04-06T08:00:18;-16261.94;;;-139.71;43.57
3598;BME280;1813;52.016;8.714;2023-04-06T08:02:52;-16261.94;;;-139.71;42.73
3598;BME280;1813;52.016;8.714;2023-04-06T08:05:26;-16261.94;;;-139.71;42.30
3598;BME280;1813;52.016;8.714;2023-04-06T08:08:00;-16261.94;;;-139.71;42.68
3598;BME280;1813;52.016;8.714;2023-04-06T08:10:34;-16261.94;;;-139.71;42.92
3598;BME280;1813;52.016;8.714;2023-04-06T08:13:11;-16261.94;;;-139.71;42.44
3598;BME280;1813;52.016;8.714;2023-04-06T08:15:45;-16261.94;;;-139.71;41.62
3598;BME280;1813;52.016;8.714;2023-04-06T08:18:18;-16261.94;;;-139.71;41.80
3598;BME280;1813;52.016;8.714;2023-04-06T08:20:52;-16261.94;;;-139.71;41.64
3598;BME280;1813;52.016;8.714;2023-04-06T08:23:28;-16261.94;;;-139.71;41.30
3598;BME280;1813;52.016;8.714;2023-04-06T08:26:01;-16261.94;;;-139.71;41.66
3598;BME280;1813;52.016;8.714;2023-04-06T08:28:38;-16261.94;;;-139.71;41.71
3598;BME280;1813;52.016;8.714;2023-04-06T08:31:12;-16261.94;;;-139.71;41.04
3598;BME280;1813;52.016;8.714;2023-04-06T08:33:46;-16261.94;;;-139.71;41.56
3598;BME280;1813;52.016;8.714;2023-04-06T08:36:20;-16261.94;;;-139.71;40.78
3598;BME280;1813;52.016;8.714;2023-04-06T08:38:54;-16261.94;;;-139.71;40.49
3598;BME280;1813;52.016;8.714;2023-04-06T08:41:28;-16261.94;;;-139.71;39.81
3598;BME280;1813;52.016;8.714;2023-04-06T08:44:05;-16261.94;;;-139.71;40.18
3598;BME280;1813;52.016;8.714;2023-04-06T08:46:39;-16261.94;;;-139.71;39.27
3598;BME280;1813;52.016;8.714;2023-04-06T08:49:14;-16261.94;;;-139.71;38.17
3598;BME280;1813;52.016;8.714;2023-04-06T08:51:50;-16261.94;;;-139.71;37.69
3598;BME280;1813;52.016;8.714;2023-04-06T08:54:24;-16261.94;;;-139.71;36.93
3598;BME280;1813;52.016;8.714;2023-04-06T08:56:58;-16261.94;;;-139.71;36.83
3598;BME280;1813;52.016;8.714;2023-04-06T08:59:35;-16261.94;;;-139.71;36.37
3598;BME280;1813;52.016;8.714;2023-04-06T09:02:15;-16261.94;;;-139.71;36.50
3598;BME280;1813;52.016;8.714;2023-04-06T09:04:53;-16261.94;;;-139.71;36.00
3598;BME280;1813;52.016;8.714;2023-04-06T09:07:27;-16261.94;;;-139.71;36.58
3598;BME280;1813;52.016;8.714;2023-04-06T09:10:01;-16261.94;;;-139.71;37.16
3598;BME280;1813;52.016;8.714;2023-04-06T09:12:35;-16261.94;;;-139.71;37.29
3598;BME280;1813;52.016;8.714;2023-04-06T09:15:20;-16261.94;;;-139.71;37.36
3598;BME280;1813;52.016;8.714;2023-04-06T09:17:55;-16261.94;;;-139.71;37.35
3598;BME280;1813;52.016;8.714;2023-04-06T09:20:29;-16261.94;;;-139.71;36.72
3598;BME280;1813;52.016;8.714;2023-04-06T09:23:03;-16261.94;;;-139.71;36.99
3598;BME280;1813;52.016;8.714;2023-04-06T09:25:37;-16261.94;;;-139.71;35.58
3598;BME280;1813;52.016;8.714;2023-04-06T09:28:11;-16261.94;;;-139.71;35.08
3598;BME280;1813;52.016;8.714;2023-04-06T09:30:50;-16261.94;;;-139.71;33.19
3598;BME280;1813;52.016;8.714;2023-04-06T09:33:24;-16261.94;;;-139.71;31.16
3598;BME280;1813;52.016;8.714;2023-04-06T09:35:58;-16261.94;;;-139.71;30.44
3598;BME280;1813;52.016;8.714;2023-04-06T09:38:32;-16261.94;;;-139.71;30.65
3598;BME280;1813;52.016;8.714;2023-04-06T09:41:06;-16261.94;;;-139.71;30.71
3598;BME280;1813;52.016;8.714;2023-04-06T09:43:40;-16261.94;;;-139.71;30.47
3598;BME280;1813;52.016;8.714;2023-04-06T09:46:17;-16261.94;;;-139.71;30.04
3598;BME280;1813;52.016;8.714;2023-04-06T09:48:54;-16261.94;;;-139.71;30.32
3598;BME280;1813;52.016;8.714;2023-04-06T09:51:29;-16261.94;;;-139.71;30.00
3598;BME280;1813;52.016;8.714;2023-04-06T09:54:04;-16261.94;;;-139.71;29.29
3598;BME280;1813;52.016;8.714;2023-04-06T09:56:45;-16261.94;;;-139.71;29.68
3598;BME280;1813;52.016;8.714;2023-04-06T09:59:26;-16261.94;;;-139.71;29.55
3598;BME280;1813;52.016;8.714;2023-04-06T10:02:10;-16261.94;;;-139.71;29.41
3598;BME280;1813;52.016;8.714;2023-04-06T10:04:52;-16261.94;;;-139.71;29.89
3598;BME280;1813;52.016;8.714;2023-04-06T10:07:27;-16261.94;;;-139.71;29.06
3598;BME280;1813;52.016;8.714;2023-04-06T10:10:02;-16261.94;;;-139.71;29.57
3598;BME280;1813;52.016;8.714;2023-04-06T10:12:37;-16261.94;;;-139.71;29.39
3598;BME280;1813;52.016;8.714;2023-04-06T10:15:11;-16261.94;;;-139.71;30.55
3598;BME280;1813;52.016;8.714;2023-04-06T10:17:48;-16261.94;;;-139.71;29.54
3598;BME280;1813;52.016;8.714;2023-04-06T10:20:25;-16261.94;;;-139.71;29.44
3598;BME280;1813;52.016;8.714;2023-04-06T10:23:06;-16261.94;;;-139.71;30.33
3598;BME280;1813;52.016;8.714;2023-04-06T10:25:52;-16261.94;;;-139.71;29.34
3598;BME280;1813;52.016;8.714;2023-04-06T10:28:31;-16261.94;;;-139.71;29.20
3598;BME280;1813;52.016;8.714;2023-04-06T10:31:06;-16261.94;;;-139.71;29.06
3598;BME280;1813;52.016;8.714;2023-04-06T10:33:53;-16261.94;;;-139.71;28.93
3598;BME280;1813;52.016;8.714;2023-04-06T10:36:31;-16261.94;;;-139.71;28.45
3598;BME280;1813;52.016;8.714;2023-04-06T10:39:05;-16261.94;;;-139.71;29.16
3598;BME280;1813;52.016;8.714;2023-04-06T10:41:42;-16261.94;;;-139.71;29.00
3598;BME280;1813;52.016;8.714;2023-04-06T10:44:18;-16261.94;;;-139.71;27.69
3598;BME280;1813;52.016;8.714;2023-04-06T10:46:54;-16261.94;;;-139.71;29.22
3598;BME280;1813;52.016;8.714;2023-04-06T10:49:33;-16261.94;;;-139.71;27.84
3598;BME280;1813;52.016;8.714;2023-04-06T10:52:07;-16261.94;;;-139.71;29.17
3598;BME280;1813;52.016;8.714;2023-04-06T10:54:42;-16261.94;;;-139.71;29.33
3598;BME280;1813;52.016;8.714;2023-04-06T10:57:27;-16261.94;;;-139.71;28.90
3598;BME280;1813;52.016;8.714;2023-04-06T11:00:04;-16261.94;;;-139.71;28.68
3598;BME280;1813;52.016;8.714;2023-04-06T11:02:38;-16261.94;;;-139.71;28.55
3598;BME280;1813;52.016;8.714;2023-04-06T11:05:15;-16261.94;;;-139.71;28.08
3598;BME280;1813;52.016;8.714;2023-04-06T11:07:49;-16261.94;;;-139.71;29.16
3598;BME280;1813;52.016;8.714;2023-04-06T11:10:23;-16261.94;;;-139.71;28.85
3598;BME280;1813;52.016;8.714;2023-04-06T11:12:57;-16261.94;;;-139.71;28.36
3598;BME280;1813;52.016;8.714;2023-04-06T11:15:34;-16261.94;;;-139.71;28.16
3598;BME280;1813;52.016;8.714;2023-04-06T11:18:08;-16261.94;;;-139.71;28.70
3598;BME280;1813;52.016;8.714;2023-04-06T11:20:49;-16261.94;;;-139.71;27.93
3598;BME280;1813;52.016;8.714;2023-04-06T11:23:23;-16261.94;;;-139.71;27.85
3598;BME280;1813;52.016;8.714;2023-04-06T11:25:58;-16261.94;;;-139.71;27.92
3598;BME280;1813;52.016;8.714;2023-04-06T11:28:32;-16261.94;;;-139.71;27.91
3598;BME280;1813;52.016;8.714;2023-04-06T11:31:06;-16261.94;;;-139.71;27.39
3598;BME280;1813;52.016;8.714;2023-04-06T11:33:40;-16261.94;;;-139.71;27.54
3598;BME280;1813;52.016;8.714;2023-04-06T11:36:16;-16261.94;;;-139.71;27.49
3598;BME280;1813;52.016;8.714;2023-04-06T11:38:50;-16261.94;;;-139.71;28.72
3598;BME280;1813;52.016;8.714;2023-04-06T11:41:24;-16261.94;;;-139.71;29.33
3598;BME280;1813;52.016;8.714;2023-04-06T11:44:04;-16261.94;;;-139.71;28.24
3598;BME280;1813;52.016;8.714;2023-04-06T11:46:53;-16261.94;;;-139.71;27.73
3598;BME280;1813;52.016;8.714;2023-04-06T11:49:39;-16261.94;;;-139.71;27.78
3598;BME280;1813;52.016;8.714;2023-04-06T11:52:22;-16261.94;;;-139.71;27.90
3598;BME280;1813;52.016;8.714;2023-04-06T11:54:56;-16261.94;;;-139.71;27.83
3598;BME280;1813;52.016;8.714;2023-04-06T11:57:30;-16261.94;;;-139.71;27.50
3598;BME280;1813;52.016;8.714;2023-04-06T12:00:06;-16261.94;;;-139.71;27.87
3598;BME280;1813;52.016;8.714;2023-04-06T12:02:45;-16261.94;;;-139.71;28.19
3598;BME280;1813;52.016;8.714;2023-04-06T12:05:19;-16261.94;;;-139.71;27.71
3598;BME280;1813;52.016;8.714;2023-04-06T12:07:57;-16261.94;;;-139.71;27.67
3598;BME280;1813;52.016;8.714;2023-04-06T12:10:31;-16261.94;;;-139.71;27.41
3598;BME280;1813;52.016;8.714;2023-04-06T12:13:05;-16261.94;;;-139.71;28.46
3598;BME280;1813;52.016;8.714;2023-04-06T12:15:39;-16261.94;;;-139.71;28.86
3598;BME280;1813;52.016;8.714;2023-04-06T12:18:12;-16261.94;;;-139.71;28.82
3598;BME280;1813;52.016;8.714;2023-04-06T12:20:46;-16261.94;;;-139.71;27.98
3598;BME280;1813;52.016;8.714;2023-04-06T12:23:23;-16261.94;;;-139.71;28.43
3598;BME280;1813;52.016;8.714;2023-04-06T12:25:57;-16261.94;;;-139.71;28.47
3598;BME280;1813;52.016;8.714;2023-04-06T12:28:32;-16261.94;;;-139.71;28.37
3598;BME280;1813;52.016;8.714;2023-04-06T12:31:06;-16261.94;;;-139.71;28.86
3598;BME280;1813;52.016;8.714;2023-04-06T12:33:40;-16261.94;;;-139.71;28.65
3598;BME280;1813;52.016;8.714;2023-04-06T12:36:16;-16261.94;;;-139.71;28.19
3598;BME280;1813;52.016;8.714;2023-04-06T12:38:54;-16261.94;;;-139.71;28.21
3598;BME280;1813;52.016;8.714;2023-04-06T12:41:29;-16261.94;;;-139.71;27.73
3598;BME280;1813;52.016;8.714;2023-04-06T12:44:03;-16261.94;;;-139.71;27.86
3598;BME280;1813;52.016;8.714;2023-04-06T12:46:37;-16261.94;;;-139.71;26.66
3598;BME280;1813;52.016;8.714;2023-04-06T12:49:12;-16261.94;;;-139.71;26.81
3598;BME280;1813;52.016;8.714;2023-04-06T12:51:47;-16261.94;;;-139.71;26.25
3598;BME280;1813;52.016;8.714;2023-04-06T12:54:24;-16261.94;;;-139.71;26.41
3598;BME280;1813;52.016;8.714;2023-04-06T12:56:58;-16261.94;;;-139.71;26.05
3598;BME280;1813;52.016;8.714;2023-04-06T12:59:32;-16261.94;;;-139.71;26.12
3598;BME280;1813;52.016;8.714;2023-04-06T13:02:07;-16261.94;;;-139.71;27.37
3598;BME280;1813;52.016;8.714;2023-04-06T13:04:42;-16261.94;;;-139.71;26.52
3598;BME280;1813;52.016;8.714;2023-04-06T13:07:16;-16261.94;;;-139.71;25.94
3598;BME280;1813;52.016;8.714;2023-04-06T13:09:53;-16261.94;;;-139.71;26.07
3598;BME280;1813;52.016;8.714;2023-04-06T13:12:27;-16261.94;;;-139.71;25.39
3598;BME280;1813;52.016;8.714;2023-04-06T13:15:01;-16261.94;;;-139.71;25.49
3598;BME280;1813;52.016;8.714;2023-04-06T13:17:35;-16261.94;;;-139.71;25.84
3598;BME280;1813;52.016;8.714;2023-04-06T13:20:09;-16261.94;;;-139.71;25.08
3598;BME280;1813;52.016;8.714;2023-04-06T13:22:45;-16261.94;;;-139.71;24.02
3598;BME280;1813;52.016;8.714;2023-04-06T13:25:21;-16261.94;;;-139.71;23.86
3598;BME280;1813;52.016;8.714;2023-04-06T13:27:56;-16261.94;;;-139.71;24.14
3598;BME280;1813;52.016;8.714;2023-04-06T13:30:29;-16261.94;;;-139.71;24.25
3598;BME280;1813;52.016;8.714;2023-04-06T13:33:03;-16261.94;;;-139.71;24.40
3598;BME280;1813;52.016;8.714;2023-04-06T13:35:38;-16261.94;;;-139.71;24.75
3598;BME280;1813;52.016;8.714;2023-04-06T13:38:13;-16261.94;;;-139.71;24.69